Time;durP1;ratioP1;P1;durP2;ratioP2;P2;SDS_P1;SDS_P2;PMS_P1;PMS_P2;Temp;Humidity;BMP_temperature;BMP_pressure;BME280_temperature;BME280_humidity;BME280_pressure;Samples;Min_cycle;Max_cycle;Signal;HPM_P1;HPM_P2
2023/04/17 00:00:16;;;;;;;29.73;18.17;;;;;;;;;;4846342;29;20045;-78
2023/04/17 00:02:43;;;;;;;34.53;19.55;;;;;;;;;;4831241;29;20034;-79
2023/04/17 00:05:09;;;;;;;31.45;18.05;;;;;;;;;;4831741;29;20495;-79
2023/04/17 00:07:40;;;;;;;34.58;19.20;;;;;;;;;;4832530;29;20038;-82
2023/04/17 00:10:07;;;;;;;38.05;20.05;;;;;;;;;;4844754;29;20060;-79
2023/04/17 00:12:34;;;;;;;33.80;20.15;;;;;;;;;;4846992;29;20034;-78
2023/04/17 00:15:00;;;;;;;34.40;19.58;;;;;;;;;;4831903;29;20037;-78
2023/04/17 00:17:26;;;;;;;35.15;20.48;;;;;;;;;;4829924;29;20310;-78
2023/04/17 00:19:52;;;;;;;37.25;21.38;;;;;;;;;;4844724;29;20037;-78
2023/04/17 00:22:18;;;;;;;33.92;20.08;;;;;;;;;;4816486;29;20088;-78
2023/04/17 00:24:44;;;;;;;35.83;21.27;;;;;;;;;;4834952;29;20049;-80
2023/04/17 00:27:10;;;;;;;39.80;21.23;;;;;;;;;;4834032;29;20029;-78
2023/04/17 00:29:36;;;;;;;35.03;20.25;;;;;;;;;;4832261;29;20038;-78
2023/04/17 00:32:02;;;;;;;42.08;21.70;;;;;;;;;;4845596;29;20451;-78
2023/04/17 00:34:28;;;;;;;39.45;22.00;;;;;;;;;;4817134;29;20034;-80
2023/04/17 00:36:55;;;;;;;36.03;20.65;;;;;;;;;;4834466;29;20034;-78
2023/04/17 00:39:21;;;;;;;35.40;20.95;;;;;;;;;;4850807;29;20113;-78
2023/04/17 00:41:47;;;;;;;38.83;21.15;;;;;;;;;;4836136;29;20519;-80
2023/04/17 00:44:13;;;;;;;35.17;20.52;;;;;;;;;;4849645;29;20026;-79
2023/04/17 00:46:40;;;;;;;36.72;20.13;;;;;;;;;;4837869;29;20124;-79
2023/04/17 00:49:06;;;;;;;38.30;21.10;;;;;;;;;;4848659;29;22635;-78
2023/04/17 00:51:33;;;;;;;35.22;20.92;;;;;;;;;;4834418;29;20143;-78
2023/04/17 00:54:00;;;;;;;38.25;21.85;;;;;;;;;;4849698;29;20121;-77
2023/04/17 00:56:26;;;;;;;34.97;21.45;;;;;;;;;;4850618;29;20042;-77
2023/04/17 00:58:53;;;;;;;38.35;21.27;;;;;;;;;;4834960;29;20022;-77
2023/04/17 01:01:21;;;;;;;33.22;21.38;;;;;;;;;;4830153;29;20062;-79
2023/04/17 01:03:47;;;;;;;29.35;19.88;;;;;;;;;;4833900;29;20507;-79
2023/04/17 01:06:14;;;;;;;35.13;20.15;;;;;;;;;;4832312;29;20068;-78
2023/04/17 01:08:41;;;;;;;33.00;20.75;;;;;;;;;;4829496;29;20492;-78
2023/04/17 01:11:07;;;;;;;43.22;22.42;;;;;;;;;;4834019;29;21528;-78
2023/04/17 01:13:33;;;;;;;35.22;20.77;;;;;;;;;;4829154;29;20447;-77
2023/04/17 01:16:02;;;;;;;36.28;20.83;;;;;;;;;;4829884;29;20568;-77
2023/04/17 01:18:28;;;;;;;33.15;20.98;;;;;;;;;;4833705;29;20033;-77
2023/04/17 01:20:54;;;;;;;37.10;21.67;;;;;;;;;;4830916;29;20029;-77
2023/04/17 01:23:20;;;;;;;34.30;21.20;;;;;;;;;;4832229;29;20034;-77
2023/04/17 01:25:46;;;;;;;34.42;19.95;;;;;;;;;;4828426;29;20034;-77
2023/04/17 01:28:12;;;;;;;32.40;20.02;;;;;;;;;;4833589;29;20032;-77
2023/04/17 01:30:38;;;;;;;29.80;20.70;;;;;;;;;;4831500;29;20038;-78
2023/04/17 01:33:04;;;;;;;31.90;19.95;;;;;;;;;;4830072;29;20065;-77
2023/04/17 01:35:30;;;;;;;33.58;19.42;;;;;;;;;;4830902;29;20042;-77
2023/04/17 01:37:56;;;;;;;34.50;22.20;;;;;;;;;;4816088;29;20106;-78
2023/04/17 01:40:22;;;;;;;36.13;22.45;;;;;;;;;;4830547;29;20996;-78
2023/04/17 01:42:48;;;;;;;33.13;20.75;;;;;;;;;;4830241;29;20408;-78
2023/04/17 01:45:14;;;;;;;31.83;20.67;;;;;;;;;;4832024;29;20042;-77
2023/04/17 01:47:40;;;;;;;33.90;20.55;;;;;;;;;;4829796;29;20038;-78
2023/04/17 01:50:10;;;;;;;28.83;19.45;;;;;;;;;;4830779;29;20059;-78
2023/04/17 01:52:36;;;;;;;33.67;20.60;;;;;;;;;;4830323;29;20438;-78
2023/04/17 01:55:03;;;;;;;32.92;22.13;;;;;;;;;;4831928;29;20042;-77
2023/04/17 01:57:29;;;;;;;31.80;21.52;;;;;;;;;;4828937;29;20034;-78
2023/04/17 01:59:55;;;;;;;31.55;21.45;;;;;;;;;;4829508;29;20041;-78
2023/04/17 02:02:21;;;;;;;35.33;21.63;;;;;;;;;;4831520;29;20077;-78
2023/04/17 02:04:47;;;;;;;31.55;21.48;;;;;;;;;;4831150;29;20432;-78
2023/04/17 02:07:13;;;;;;;34.90;20.77;;;;;;;;;;4815597;29;20073;-79
2023/04/17 02:09:39;;;;;;;39.53;23.02;;;;;;;;;;4829634;29;20548;-79
2023/04/17 02:12:05;;;;;;;35.90;21.70;;;;;;;;;;4829962;29;20045;-79
2023/04/17 02:14:31;;;;;;;37.40;22.95;;;;;;;;;;4827958;29;20026;-78
2023/04/17 02:16:58;;;;;;;38.70;23.70;;;;;;;;;;4814879;29;20376;-78
2023/04/17 02:19:24;;;;;;;37.15;22.35;;;;;;;;;;4830201;29;20031;-78
2023/04/17 02:21:53;;;;;;;37.10;22.98;;;;;;;;;;4826504;29;20034;-77
2023/04/17 02:24:19;;;;;;;35.20;22.17;;;;;;;;;;4831545;29;20037;-77
2023/04/17 02:26:45;;;;;;;31.30;20.90;;;;;;;;;;4816773;29;20041;-77
2023/04/17 02:29:11;;;;;;;35.17;21.35;;;;;;;;;;4829846;29;20034;-77
2023/04/17 02:31:39;;;;;;;35.28;21.35;;;;;;;;;;4827020;29;20049;-76
2023/04/17 02:34:05;;;;;;;36.83;22.48;;;;;;;;;;4827836;29;20306;-77
2023/04/17 02:36:31;;;;;;;40.05;23.30;;;;;;;;;;4817006;29;20052;-77
2023/04/17 02:38:57;;;;;;;39.92;23.48;;;;;;;;;;4828214;29;20065;-77
2023/04/17 02:41:24;;;;;;;43.83;24.15;;;;;;;;;;4845393;29;20090;-78
2023/04/17 02:43:50;;;;;;;39.08;23.20;;;;;;;;;;4828830;29;20026;-78
2023/04/17 02:46:16;;;;;;;38.17;24.80;;;;;;;;;;4828691;29;20034;-77
2023/04/17 02:48:42;;;;;;;40.42;23.50;;;;;;;;;;4829597;29;20061;-78
2023/04/17 02:51:08;;;;;;;38.92;24.70;;;;;;;;;;4814712;29;20442;-78
2023/04/17 02:53:34;;;;;;;42.63;25.55;;;;;;;;;;4827849;29;20503;-78
2023/04/17 02:56:00;;;;;;;42.47;25.65;;;;;;;;;;4816767;29;20098;-78
2023/04/17 02:58:26;;;;;;;45.72;25.65;;;;;;;;;;4829425;29;20029;-77
2023/04/17 03:00:58;;;;;;;38.53;25.33;;;;;;;;;;4831476;29;20066;-78
2023/04/17 03:03:26;;;;;;;45.42;25.73;;;;;;;;;;4829333;29;20087;-78
2023/04/17 03:05:52;;;;;;;40.60;24.30;;;;;;;;;;4828638;29;20103;-78
2023/04/17 03:08:18;;;;;;;40.67;25.95;;;;;;;;;;4829501;29;20041;-79
2023/04/17 03:10:44;;;;;;;42.90;26.20;;;;;;;;;;4831857;29;20050;-78
2023/04/17 03:13:10;;;;;;;38.83;24.48;;;;;;;;;;4827575;29;20046;-77
2023/04/17 03:15:36;;;;;;;42.42;24.98;;;;;;;;;;4828574;29;20556;-78
2023/04/17 03:18:02;;;;;;;41.08;23.35;;;;;;;;;;4827971;29;20053;-77
2023/04/17 03:20:28;;;;;;;41.05;23.92;;;;;;;;;;4828004;29;20487;-78
2023/04/17 03:22:54;;;;;;;38.65;21.63;;;;;;;;;;4813079;29;20062;-83
2023/04/17 03:25:21;;;;;;;37.28;22.02;;;;;;;;;;4849541;29;20086;-84
2023/04/17 03:27:47;;;;;;;45.53;21.42;;;;;;;;;;4842151;29;20049;-83
2023/04/17 03:30:13;;;;;;;34.97;19.83;;;;;;;;;;4829842;29;20551;-79
2023/04/17 03:32:39;;;;;;;34.28;20.92;;;;;;;;;;4827329;29;20034;-81
2023/04/17 03:35:05;;;;;;;44.42;26.30;;;;;;;;;;4834457;29;20026;-81
2023/04/17 03:37:31;;;;;;;56.70;23.30;;;;;;;;;;4836176;29;20400;-83
2023/04/17 03:39:57;;;;;;;36.55;20.92;;;;;;;;;;4831565;29;20025;-79
2023/04/17 03:45:18;;;;;;;34.58;20.75;;;;;;;;;;4827800;29;20042;-81
2023/04/17 03:47:46;;;;;;;41.10;22.98;;;;;;;;;;4840527;29;20041;-79
2023/04/17 03:50:12;;;;;;;33.53;20.98;;;;;;;;;;4834027;29;20060;-81
2023/04/17 03:52:38;;;;;;;36.50;21.25;;;;;;;;;;4822108;29;20505;-82
2023/04/17 03:55:05;;;;;;;44.92;22.13;;;;;;;;;;4820080;29;20038;-83
2023/04/17 03:57:31;;;;;;;37.70;22.88;;;;;;;;;;4839794;29;20516;-83
2023/04/17 03:59:57;;;;;;;41.80;21.73;;;;;;;;;;4833158;29;20022;-83
2023/04/17 04:02:23;;;;;;;36.80;23.23;;;;;;;;;;4826756;29;20061;-81
2023/04/17 04:04:49;;;;;;;36.53;22.08;;;;;;;;;;4842153;29;20033;-82
2023/04/17 04:07:15;;;;;;;45.20;21.85;;;;;;;;;;4838922;29;20030;-82
2023/04/17 04:09:41;;;;;;;35.97;20.67;;;;;;;;;;4839007;29;20026;-81
2023/04/17 04:12:07;;;;;;;48.13;21.67;;;;;;;;;;4836456;29;20045;-82
2023/04/17 04:14:33;;;;;;;49.17;25.65;;;;;;;;;;4831341;29;20034;-82
2023/04/17 04:16:59;;;;;;;45.05;24.85;;;;;;;;;;4848852;29;20041;-80
2023/04/17 04:19:26;;;;;;;40.08;23.00;;;;;;;;;;4826864;29;20031;-82
2023/04/17 04:21:52;;;;;;;37.70;23.05;;;;;;;;;;4829917;29;20038;-78
2023/04/17 04:24:19;;;;;;;40.47;21.98;;;;;;;;;;4860093;29;20086;-81
2023/04/17 04:26:48;;;;;;;43.95;22.25;;;;;;;;;;4829192;29;20045;-80
2023/04/17 04:29:14;;;;;;;42.55;21.75;;;;;;;;;;4820164;29;20041;-80
2023/04/17 04:31:41;;;;;;;56.30;21.90;;;;;;;;;;4846199;29;20037;-79
2023/04/17 04:34:08;;;;;;;49.95;22.25;;;;;;;;;;4835644;29;20452;-79
2023/04/17 04:36:49;;;;;;;55.45;23.70;;;;;;;;;;4823391;29;20042;-78
2023/04/17 04:39:21;;;;;;;68.07;21.77;;;;;;;;;;4825603;29;20056;-78
2023/04/17 04:41:48;;;;;;;49.92;20.75;;;;;;;;;;4828779;29;20034;-78
2023/04/17 04:44:15;;;;;;;48.83;22.55;;;;;;;;;;4827076;29;20033;-78
2023/04/17 04:46:41;;;;;;;91.63;22.58;;;;;;;;;;4824653;29;20030;-78
2023/04/17 04:49:07;;;;;;;99.53;23.00;;;;;;;;;;4829281;29;20491;-78
2023/04/17 04:51:33;;;;;;;70.30;23.15;;;;;;;;;;4830081;29;20048;-78
2023/04/17 04:53:59;;;;;;;97.30;22.98;;;;;;;;;;4826999;29;20523;-78
2023/04/17 04:56:26;;;;;;;105.93;23.60;;;;;;;;;;4829279;29;20037;-78
2023/04/17 04:58:52;;;;;;;103.55;23.45;;;;;;;;;;4825753;29;20034;-78
2023/04/17 05:01:18;;;;;;;91.20;21.83;;;;;;;;;;4829338;29;20042;-77
2023/04/17 05:03:44;;;;;;;71.70;22.80;;;;;;;;;;4828708;29;20165;-77
2023/04/17 05:06:12;;;;;;;79.88;20.55;;;;;;;;;;4829240;29;20050;-79
2023/04/17 05:08:38;;;;;;;57.50;21.23;;;;;;;;;;4826946;29;20038;-79
2023/04/17 05:11:04;;;;;;;70.22;20.95;;;;;;;;;;4824091;29;20041;-79
2023/04/17 05:13:30;;;;;;;65.78;18.55;;;;;;;;;;4829674;29;20045;-79
2023/04/17 05:15:56;;;;;;;98.43;19.90;;;;;;;;;;4827191;29;20046;-78
2023/04/17 05:18:22;;;;;;;73.78;19.27;;;;;;;;;;4826866;29;20118;-75
2023/04/17 05:20:49;;;;;;;79.03;20.83;;;;;;;;;;4826705;29;20038;-76
2023/04/17 05:23:15;;;;;;;59.95;19.77;;;;;;;;;;4841483;29;20449;-76
2023/04/17 05:25:42;;;;;;;63.55;19.55;;;;;;;;;;4829991;29;20498;-78
2023/04/17 05:28:08;;;;;;;73.07;19.20;;;;;;;;;;4830473;29;20034;-79
2023/04/17 05:30:35;;;;;;;80.78;20.50;;;;;;;;;;4818371;29;20125;-79
2023/04/17 05:33:01;;;;;;;31.23;19.73;;;;;;;;;;4831404;29;20476;-79
2023/04/17 05:35:27;;;;;;;69.53;19.95;;;;;;;;;;4831708;29;20045;-79
2023/04/17 05:37:54;;;;;;;48.33;20.85;;;;;;;;;;4830170;29;20080;-79
2023/04/17 05:40:20;;;;;;;30.23;19.48;;;;;;;;;;4827065;29;20026;-79
2023/04/17 05:42:46;;;;;;;68.25;21.08;;;;;;;;;;4830942;29;20536;-79
2023/04/17 05:45:16;;;;;;;51.95;21.83;;;;;;;;;;4817065;29;20037;-79
2023/04/17 05:47:42;;;;;;;77.55;21.25;;;;;;;;;;4831209;29;20121;-79
2023/04/17 05:50:09;;;;;;;55.95;22.58;;;;;;;;;;4830339;29;20030;-79
2023/04/17 05:52:35;;;;;;;59.78;23.25;;;;;;;;;;4829912;29;20041;-79
2023/04/17 05:55:02;;;;;;;57.42;22.70;;;;;;;;;;4827771;29;20040;-79
2023/04/17 05:57:28;;;;;;;69.70;22.83;;;;;;;;;;4820835;29;20481;-79
2023/04/17 05:59:54;;;;;;;72.35;24.88;;;;;;;;;;4831092;29;20022;-79
2023/04/17 06:02:20;;;;;;;67.97;25.55;;;;;;;;;;4842701;29;20040;-79
2023/04/17 06:04:46;;;;;;;76.43;23.80;;;;;;;;;;4826771;29;20072;-79
2023/04/17 06:07:13;;;;;;;62.08;26.30;;;;;;;;;;4831100;29;20332;-80
2023/04/17 06:09:39;;;;;;;55.53;26.58;;;;;;;;;;4827538;29;20506;-80
2023/04/17 06:12:13;;;;;;;75.60;27.52;;;;;;;;;;4827991;29;20065;-79
2023/04/17 06:14:39;;;;;;;72.82;24.02;;;;;;;;;;4830667;29;20449;-79
2023/04/17 06:17:05;;;;;;;70.78;24.13;;;;;;;;;;4833405;29;20042;-79
2023/04/17 06:19:31;;;;;;;63.33;25.25;;;;;;;;;;4826335;29;20042;-77
2023/04/17 06:21:58;;;;;;;72.85;23.25;;;;;;;;;;4830205;29;20033;-79
2023/04/17 06:24:24;;;;;;;76.07;23.05;;;;;;;;;;4830054;29;20121;-79
2023/04/17 06:27:37;;;;;;;54.58;20.77;;;;;;;;;;4827494;29;20044;-85
2023/04/17 06:30:09;;;;;;;125.95;22.85;;;;;;;;;;4829351;29;20389;-83
2023/04/17 06:32:44;;;;;;;;;;;;;;;;;;4808501;29;20305;-82
2023/04/17 06:35:10;;;;;;;51.38;21.23;;;;;;;;;;4845046;29;19913;-83
2023/04/17 06:37:39;;;;;;;49.85;21.90;;;;;;;;;;4826680;29;20056;-80
2023/04/17 06:40:06;;;;;;;39.30;20.92;;;;;;;;;;4815760;29;20038;-82
2023/04/17 06:42:51;;;;;;;65.65;27.83;;;;;;;;;;4814756;29;20045;-79
2023/04/17 06:45:17;;;;;;;56.13;24.65;;;;;;;;;;4828719;29;20065;-81
2023/04/17 06:47:45;;;;;;;41.75;22.15;;;;;;;;;;4815425;29;20062;-80
2023/04/17 06:50:11;;;;;;;47.92;22.35;;;;;;;;;;4832485;29;20049;-81
2023/04/17 06:52:40;;;;;;;44.40;23.77;;;;;;;;;;4833394;29;20030;-77
2023/04/17 06:55:06;;;;;;;42.47;22.30;;;;;;;;;;4830011;29;20034;-77
2023/04/17 06:57:32;;;;;;;51.80;24.63;;;;;;;;;;4817534;29;20549;-80
2023/04/17 06:59:59;;;;;;;39.90;24.05;;;;;;;;;;4826484;29;20046;-80
2023/04/17 07:02:25;;;;;;;42.28;24.10;;;;;;;;;;4845343;29;20076;-80
2023/04/17 07:04:53;;;;;;;43.25;23.70;;;;;;;;;;4833482;29;20042;-76
2023/04/17 07:07:19;;;;;;;40.35;24.30;;;;;;;;;;4820222;29;20081;-81
2023/04/17 07:09:47;;;;;;;40.53;24.33;;;;;;;;;;4813612;29;20038;-79
2023/04/17 07:12:13;;;;;;;37.80;23.90;;;;;;;;;;4820338;29;20768;-78
2023/04/17 07:14:39;;;;;;;43.78;24.60;;;;;;;;;;4819606;29;20077;-77
2023/04/17 07:20:09;;;;;;;52.35;28.80;;;;;;;;;;4847993;29;20112;-77
2023/04/17 07:22:41;;;;;;;47.35;25.42;;;;;;;;;;4818881;29;20060;-83
2023/04/17 07:25:08;;;;;;;56.47;26.27;;;;;;;;;;4849019;29;20319;-82
2023/04/17 07:27:37;;;;;;;46.20;26.15;;;;;;;;;;4836872;29;20387;-84
2023/04/17 07:30:03;;;;;;;45.22;25.95;;;;;;;;;;4846633;29;20445;-82
2023/04/17 07:32:29;;;;;;;44.92;26.67;;;;;;;;;;4857650;29;20041;-81
2023/04/17 07:34:55;;;;;;;44.53;25.98;;;;;;;;;;4863652;29;20025;-82
2023/04/17 07:37:21;;;;;;;46.05;25.20;;;;;;;;;;4836718;29;20049;-83
2023/04/17 07:39:51;;;;;;;42.47;24.27;;;;;;;;;;4845841;29;20612;-84
2023/04/17 07:42:17;;;;;;;40.60;23.35;;;;;;;;;;5023059;24;20086;-85
2023/04/17 07:44:43;;;;;;;39.42;24.05;;;;;;;;;;4848890;29;20022;-83
2023/04/17 07:47:09;;;;;;;86.60;52.90;;;;;;;;;;4836389;29;20195;-83
2023/04/17 07:49:35;;;;;;;40.20;25.60;;;;;;;;;;4833384;29;20095;-79
2023/04/17 07:52:01;;;;;;;36.85;22.30;;;;;;;;;;4831299;29;20461;-81
2023/04/17 07:54:27;;;;;;;36.83;21.15;;;;;;;;;;4836519;29;20093;-83
2023/04/17 07:57:01;;;;;;;34.50;20.88;;;;;;;;;;4820064;29;20070;-81
2023/04/17 07:59:27;;;;;;;36.72;21.38;;;;;;;;;;4828671;29;20057;-79
2023/04/17 08:01:53;;;;;;;34.47;20.40;;;;;;;;;;4827098;29;20025;-80
2023/04/17 08:04:19;;;;;;;36.05;21.25;;;;;;;;;;4825122;29;20138;-80
2023/04/17 08:06:49;;;;;;;33.92;21.15;;;;;;;;;;4814097;29;20085;-81
2023/04/17 08:09:15;;;;;;;30.70;20.52;;;;;;;;;;4827223;29;20045;-80
2023/04/17 08:11:44;;;;;;;31.70;21.02;;;;;;;;;;4831645;29;20042;-83
2023/04/17 08:14:10;;;;;;;29.05;18.25;;;;;;;;;;4842580;29;20065;-84
2023/04/17 08:16:36;;;;;;;28.50;18.38;;;;;;;;;;4835051;29;20075;-80
2023/04/17 08:19:02;;;;;;;38.15;25.90;;;;;;;;;;4811008;29;20038;-81
2023/04/17 08:22:31;;;;;;;29.70;20.48;;;;;;;;;;4838772;29;20034;-82
2023/04/17 08:24:38;;;;;;;25.73;17.05;;;;;;;;;;4835333;29;20039;-78
2023/04/17 08:27:28;;;;;;;;;;;;;;;;;;;;;
2023/04/17 08:29:55;;;;;;;28.15;17.10;;;;;;;;;;4829380;29;20476;-80
2023/04/17 08:32:21;;;;;;;29.33;17.92;;;;;;;;;;4832501;29;20030;-79
2023/04/17 08:34:47;;;;;;;25.15;17.25;;;;;;;;;;4841508;29;20417;-79
2023/04/17 08:37:13;;;;;;;25.95;18.63;;;;;;;;;;4822790;29;20038;-80
2023/04/17 08:39:39;;;;;;;27.13;18.42;;;;;;;;;;4829785;29;20026;-79
2023/04/17 08:42:07;;;;;;;29.17;19.75;;;;;;;;;;4828903;29;20527;-80
2023/04/17 08:44:33;;;;;;;23.73;17.70;;;;;;;;;;4845011;29;20416;-80
2023/04/17 08:46:59;;;;;;;24.92;18.17;;;;;;;;;;4824925;29;20043;-80
2023/04/17 08:49:29;;;;;;;25.50;18.42;;;;;;;;;;4812677;29;20042;-80
2023/04/17 08:51:55;;;;;;;28.40;18.35;;;;;;;;;;4828081;29;20137;-80
2023/04/17 08:54:21;;;;;;;28.92;19.55;;;;;;;;;;4831026;29;20068;-80
2023/04/17 08:56:48;;;;;;;25.25;17.90;;;;;;;;;;4826053;29;20055;-81
2023/04/17 08:59:15;;;;;;;25.13;18.95;;;;;;;;;;4833068;29;20034;-80
2023/04/17 09:02:00;;;;;;;26.05;18.45;;;;;;;;;;4833177;29;20049;-81
2023/04/17 09:04:44;;;;;;;24.17;17.80;;;;;;;;;;4832398;29;20046;-81
2023/04/17 09:07:10;;;;;;;24.13;18.23;;;;;;;;;;4826846;29;20452;-81
2023/04/17 09:09:46;;;;;;;24.95;18.13;;;;;;;;;;4835512;29;20034;-81
2023/04/17 09:12:12;;;;;;;28.70;17.98;;;;;;;;;;4848217;29;20504;-79
2023/04/17 09:14:38;;;;;;;21.30;16.52;;;;;;;;;;4831218;29;20034;-80
2023/04/17 09:17:04;;;;;;;20.45;15.90;;;;;;;;;;4836439;29;20038;-79
2023/04/17 09:19:30;;;;;;;17.27;14.30;;;;;;;;;;4831989;29;20083;-80
2023/04/17 09:21:56;;;;;;;18.50;14.65;;;;;;;;;;4830544;29;21428;-79
2023/04/17 09:24:36;;;;;;;16.83;14.30;;;;;;;;;;4829438;29;20042;-79
2023/04/17 09:27:21;;;;;;;16.98;13.32;;;;;;;;;;4843165;29;20045;-80
2023/04/17 09:29:57;;;;;;;17.33;13.70;;;;;;;;;;4846586;29;20038;-80
2023/04/17 09:32:23;;;;;;;18.15;14.40;;;;;;;;;;4844027;29;20087;-80
2023/04/17 09:34:49;;;;;;;17.25;15.05;;;;;;;;;;4832200;29;20138;-80
2023/04/17 09:37:16;;;;;;;16.95;14.35;;;;;;;;;;4831103;29;20038;-81
2023/04/17 09:39:56;;;;;;;20.33;14.90;;;;;;;;;;4829801;29;20045;-80
2023/04/17 09:42:22;;;;;;;18.50;14.93;;;;;;;;;;4832400;29;20145;-81
2023/04/17 09:44:48;;;;;;;15.98;13.35;;;;;;;;;;4831906;29;20034;-81
2023/04/17 09:47:18;;;;;;;13.43;11.80;;;;;;;;;;4832606;29;20046;-80
2023/04/17 09:49:51;;;;;;;13.35;11.95;;;;;;;;;;4830254;29;20033;-81
2023/04/17 09:52:17;;;;;;;13.68;11.40;;;;;;;;;;4829677;29;20475;-80
2023/04/17 09:54:45;;;;;;;15.43;12.25;;;;;;;;;;4832230;29;20486;-80
2023/04/17 09:57:12;;;;;;;15.95;12.02;;;;;;;;;;4827005;29;20048;-80
2023/04/17 09:59:44;;;;;;;13.70;11.40;;;;;;;;;;4830648;29;20060;-81
2023/04/17 10:02:11;;;;;;;;;;;;;;;;;;4831825;29;20030;-81
2023/04/17 10:04:40;;;;;;;13.98;11.93;;;;;;;;;;4831204;29;19969;-78
2023/04/17 10:07:06;;;;;;;15.55;12.30;;;;;;;;;;4851842;29;20035;-85
2023/04/17 10:09:32;;;;;;;14.57;12.90;;;;;;;;;;4850793;29;20057;-85
2023/04/17 10:12:00;;;;;;;12.68;10.55;;;;;;;;;;4831788;29;20500;-85
2023/04/17 10:14:36;;;;;;;15.63;11.07;;;;;;;;;;4820842;29;20029;-79
2023/04/17 10:17:21;;;;;;;12.40;10.88;;;;;;;;;;4831791;29;20061;-77
2023/04/17 10:19:47;;;;;;;10.77;9.63;;;;;;;;;;4831742;29;20480;-79
2023/04/17 10:22:19;;;;;;;11.90;9.55;;;;;;;;;;4827817;29;20038;-77
2023/04/17 10:24:50;;;;;;;10.85;9.65;;;;;;;;;;4844227;29;20058;-76
2023/04/17 10:27:29;;;;;;;10.60;9.38;;;;;;;;;;4831510;29;20333;-76
2023/04/17 10:29:59;;;;;;;12.13;10.00;;;;;;;;;;4845382;29;20116;-75
2023/04/17 10:32:28;;;;;;;11.38;8.48;;;;;;;;;;4828901;29;20038;-76
2023/04/17 10:34:55;;;;;;;12.63;9.75;;;;;;;;;;4812812;29;20373;-75
2023/04/17 10:37:43;;;;;;;11.68;9.63;;;;;;;;;;4827068;29;20042;-75
2023/04/17 10:40:10;;;;;;;12.75;9.45;;;;;;;;;;4826820;29;20058;-77
2023/04/17 10:42:36;;;;;;;11.70;9.15;;;;;;;;;;4817980;29;20089;-75
2023/04/17 10:45:04;;;;;;;11.27;10.07;;;;;;;;;;4828722;29;20034;-75
2023/04/17 10:47:34;;;;;;;17.23;10.93;;;;;;;;;;4812821;29;20516;-77
2023/04/17 10:50:02;;;;;;;21.17;16.25;;;;;;;;;;4828083;29;20111;-77
2023/04/17 10:52:43;;;;;;;11.88;10.45;;;;;;;;;;4829206;29;20095;-78
2023/04/17 10:55:09;;;;;;;12.32;9.43;;;;;;;;;;4830137;29;20038;-79
2023/04/17 10:57:54;;;;;;;14.25;9.82;;;;;;;;;;4824730;29;20053;-79
2023/04/17 11:00:28;;;;;;;11.77;9.48;;;;;;;;;;4830105;29;20034;-76
2023/04/17 11:02:54;;;;;;;18.23;9.63;;;;;;;;;;4828681;29;20040;-80
2023/04/17 11:05:21;;;;;;;12.10;9.88;;;;;;;;;;4829768;29;20038;-80
2023/04/17 11:07:50;;;;;;;11.63;8.82;;;;;;;;;;4831180;29;20107;-80
2023/04/17 11:10:20;;;;;;;12.30;9.35;;;;;;;;;;4829691;29;20030;-80
2023/04/17 11:12:47;;;;;;;10.52;8.88;;;;;;;;;;4846467;29;20034;-80
2023/04/17 11:15:15;;;;;;;11.30;9.07;;;;;;;;;;4824579;29;20067;-79
2023/04/17 11:17:45;;;;;;;12.88;10.57;;;;;;;;;;4840794;29;20045;-80
2023/04/17 11:20:11;;;;;;;11.13;9.05;;;;;;;;;;4827363;29;21422;-80
2023/04/17 11:22:38;;;;;;;14.45;9.88;;;;;;;;;;4843505;29;20480;-79
2023/04/17 11:25:05;;;;;;;15.02;9.85;;;;;;;;;;4842873;29;20034;-79
2023/04/17 11:27:32;;;;;;;12.70;9.90;;;;;;;;;;4830071;29;20041;-79
2023/04/17 11:29:58;;;;;;;16.73;10.38;;;;;;;;;;4828698;29;20101;-81
2023/04/17 11:32:24;;;;;;;14.68;10.13;;;;;;;;;;4842369;29;20052;-80
2023/04/17 11:34:53;;;;;;;12.82;9.65;;;;;;;;;;4828399;29;20026;-79
2023/04/17 11:37:19;;;;;;;12.65;10.13;;;;;;;;;;4829826;29;20034;-80
2023/04/17 11:39:45;;;;;;;13.40;9.40;;;;;;;;;;4827928;29;20098;-80
2023/04/17 11:42:11;;;;;;;15.50;11.57;;;;;;;;;;4817218;29;20614;-80
2023/04/17 11:44:43;;;;;;;16.35;11.32;;;;;;;;;;4842621;29;20128;-80
2023/04/17 11:47:09;;;;;;;14.87;11.50;;;;;;;;;;4830216;29;20045;-80
2023/04/17 11:49:39;;;;;;;19.83;11.55;;;;;;;;;;4828699;29;20039;-80
2023/04/17 11:52:05;;;;;;;13.95;11.90;;;;;;;;;;4842810;29;20036;-80
2023/04/17 11:54:34;;;;;;;12.50;10.50;;;;;;;;;;4844838;29;20045;-79
2023/04/17 11:57:01;;;;;;;14.40;10.45;;;;;;;;;;4827756;29;20125;-79
2023/04/17 11:59:35;;;;;;;13.20;10.60;;;;;;;;;;4843145;29;20026;-79
2023/04/17 12:02:02;;;;;;;14.82;10.90;;;;;;;;;;4830858;29;20030;-79
2023/04/17 12:04:28;;;;;;;17.92;11.00;;;;;;;;;;4844162;29;20472;-80
2023/04/17 12:06:55;;;;;;;15.02;12.35;;;;;;;;;;4828858;29;20132;-79
2023/04/17 12:09:23;;;;;;;20.95;12.35;;;;;;;;;;4814026;29;20061;-79
2023/04/17 12:11:50;;;;;;;14.63;11.85;;;;;;;;;;4831341;29;20099;-79
2023/04/17 12:14:16;;;;;;;16.33;11.45;;;;;;;;;;4825164;29;20038;-79
2023/04/17 12:16:42;;;;;;;15.95;11.50;;;;;;;;;;4826970;29;20034;-79
2023/04/17 12:19:09;;;;;;;17.10;13.02;;;;;;;;;;4827072;29;20061;-80
2023/04/17 12:21:35;;;;;;;16.23;11.57;;;;;;;;;;4827693;29;20062;-79
2023/04/17 12:24:01;;;;;;;20.80;12.38;;;;;;;;;;4840727;29;20484;-77
2023/04/17 12:26:27;;;;;;;15.23;11.65;;;;;;;;;;4824967;29;20034;-82
2023/04/17 12:28:56;;;;;;;16.60;11.68;;;;;;;;;;4843776;29;20546;-79
2023/04/17 12:31:22;;;;;;;16.25;10.68;;;;;;;;;;4827313;29;20039;-78
2023/04/17 12:33:48;;;;;;;14.55;11.20;;;;;;;;;;4830346;29;20038;-79
2023/04/17 12:36:14;;;;;;;14.65;10.73;;;;;;;;;;4833315;29;20504;-82
2023/04/17 12:38:47;;;;;;;26.10;17.92;;;;;;;;;;4834616;29;20536;-78
2023/04/17 12:41:13;;;;;;;;;;;;;;;;;;4843711;29;20057;-78
2023/04/17 12:43:39;;;;;;;17.77;12.20;;;;;;;;;;4831943;29;19918;-77
2023/04/17 12:46:05;;;;;;;16.10;10.52;;;;;;;;;;4817268;29;20038;-73
2023/04/17 12:48:31;;;;;;;18.08;11.13;;;;;;;;;;4819269;29;20101;-76
2023/04/17 12:50:57;;;;;;;12.98;10.43;;;;;;;;;;4817743;29;20045;-76
2023/04/17 12:53:23;;;;;;;15.23;11.32;;;;;;;;;;4845691;29;20034;-77
2023/04/17 12:55:49;;;;;;;12.98;10.50;;;;;;;;;;4833784;29;20049;-74
2023/04/17 12:58:15;;;;;;;38.03;25.83;;;;;;;;;;4846310;29;20063;-75
2023/04/17 13:00:42;;;;;;;18.33;11.80;;;;;;;;;;4823180;29;20045;-75
2023/04/17 13:03:09;;;;;;;14.50;12.18;;;;;;;;;;4835487;29;20026;-73
2023/04/17 13:05:35;;;;;;;16.13;11.50;;;;;;;;;;4832903;29;20034;-74
2023/04/17 13:08:01;;;;;;;14.35;9.20;;;;;;;;;;4846769;29;20044;-77
2023/04/17 13:10:28;;;;;;;14.93;11.00;;;;;;;;;;4826903;29;20584;-74
2023/04/17 13:12:54;;;;;;;16.00;12.15;;;;;;;;;;4850519;29;20033;-75
2023/04/17 13:15:20;;;;;;;17.98;11.80;;;;;;;;;;4824380;29;20040;-73
2023/04/17 13:17:46;;;;;;;13.90;10.18;;;;;;;;;;4819519;29;20045;-76
2023/04/17 13:20:13;;;;;;;15.07;11.50;;;;;;;;;;4848135;29;20118;-80
2023/04/17 13:22:39;;;;;;;19.85;11.43;;;;;;;;;;4849694;29;20034;-73
2023/04/17 13:25:05;;;;;;;12.13;10.40;;;;;;;;;;4833560;29;20078;-74
2023/04/17 13:27:31;;;;;;;15.85;11.27;;;;;;;;;;4857309;29;20038;-74
2023/04/17 13:29:57;;;;;;;13.18;9.95;;;;;;;;;;4844980;29;20128;-74
2023/04/17 13:32:23;;;;;;;13.27;9.98;;;;;;;;;;4840414;29;20022;-73
2023/04/17 13:34:49;;;;;;;14.05;9.95;;;;;;;;;;4828148;29;20037;-72
2023/04/17 13:37:16;;;;;;;18.73;11.20;;;;;;;;;;4823515;29;20475;-75
2023/04/17 13:39:42;;;;;;;16.27;11.25;;;;;;;;;;4832363;29;20102;-72
2023/04/17 13:42:08;;;;;;;11.90;9.27;;;;;;;;;;4831471;29;20054;-75
2023/04/17 13:44:34;;;;;;;15.38;10.70;;;;;;;;;;4826908;29;20706;-76
2023/04/17 13:47:02;;;;;;;16.67;10.60;;;;;;;;;;4834039;29;20447;-74
2023/04/17 13:49:28;;;;;;;12.75;9.65;;;;;;;;;;4852061;29;20030;-78
2023/04/17 13:51:54;;;;;;;12.43;9.82;;;;;;;;;;4835878;29;20098;-76
2023/04/17 13:54:20;;;;;;;14.05;9.90;;;;;;;;;;4825258;29;20026;-80
2023/04/17 13:56:46;;;;;;;14.70;10.50;;;;;;;;;;4843534;29;20512;-81
2023/04/17 13:59:12;;;;;;;15.40;12.23;;;;;;;;;;4821491;29;20387;-80
2023/04/17 14:01:38;;;;;;;17.70;11.25;;;;;;;;;;4834778;29;20416;-79
2023/04/17 14:04:04;;;;;;;14.52;10.18;;;;;;;;;;4824904;29;20030;-79
2023/04/17 14:06:31;;;;;;;13.82;10.27;;;;;;;;;;4816708;29;20492;-81
2023/04/17 14:08:58;;;;;;;13.70;10.18;;;;;;;;;;4818405;29;20217;-80
2023/04/17 14:11:24;;;;;;;15.90;9.18;;;;;;;;;;4833711;29;20506;-77
2023/04/17 14:13:50;;;;;;;15.15;8.95;;;;;;;;;;4824753;29;20026;-80
2023/04/17 14:16:20;;;;;;;14.27;10.43;;;;;;;;;;4848770;29;20042;-77
2023/04/17 14:18:47;;;;;;;14.88;10.60;;;;;;;;;;4828595;29;20042;-80
2023/04/17 14:21:13;;;;;;;12.93;10.57;;;;;;;;;;4834152;29;20048;-77
2023/04/17 14:23:39;;;;;;;14.45;9.88;;;;;;;;;;4846641;29;20035;-77
2023/04/17 14:26:06;;;;;;;15.32;10.68;;;;;;;;;;4840678;29;20068;-76
2023/04/17 14:28:32;;;;;;;21.63;11.23;;;;;;;;;;4822052;29;20030;-79